Time;durP1;ratioP1;P1;durP2;ratioP2;P2;SDS_P1;SDS_P2;PMS_P1;PMS_P2;Temp;Humidity;BMP_temperature;BMP_pressure;BME280_temperature;BME280_humidity;BME280_pressure;Samples;Min_cycle;Max_cycle;Signal;HPM_P1;HPM_P2
2022/07/20 00:00:07;;;;;;;7.10;4.40;;;;;;;18.49;71.52;100940.98;1717761;82;21141;-48
2022/07/20 00:02:36;;;;;;;6.95;4.20;;;;;;;18.52;71.51;100940.67;1716487;83;21065;-49
2022/07/20 00:05:04;;;;;;;7.60;4.58;;;;;;;18.50;71.40;100944.83;1716768;82;21053;-48
2022/07/20 00:07:31;;;;;;;7.33;4.45;;;;;;;18.44;71.54;100941.49;1712615;82;21066;-48
2022/07/20 00:12:43;;;;;;;6.75;4.08;;;;;;;18.36;71.58;100944.95;1713481;82;21156;-48
2022/07/20 00:15:10;;;;;;;7.08;3.67;;;;;;;18.34;71.57;100937.62;1714912;82;21053;-48
2022/07/20 00:17:36;;;;;;;8.25;4.60;;;;;;;18.30;71.62;100937.59;1709183;82;21124;-48
2022/07/20 00:20:06;;;;;;;7.47;4.65;;;;;;;18.25;71.87;100942.55;1703422;82;21046;-47
2022/07/20 00:22:32;;;;;;;9.05;4.70;;;;;;;18.21;72.03;100941.22;1719110;82;21062;-47
2022/07/20 00:24:59;;;;;;;6.65;4.25;;;;;;;18.17;72.13;100934.05;1715427;82;21149;-47
2022/07/20 00:27:25;;;;;;;7.03;4.28;;;;;;;18.13;72.26;100942.00;1718824;82;21065;-47
2022/07/20 00:29:52;;;;;;;6.55;4.15;;;;;;;18.10;72.28;100936.98;1694145;82;21101;-50
2022/07/20 00:32:18;;;;;;;8.30;3.95;;;;;;;18.11;72.17;100939.17;1712414;83;21042;-46
2022/07/20 00:34:45;;;;;;;6.92;4.60;;;;;;;18.10;72.18;100936.16;1695379;82;21106;-47
2022/07/20 00:37:11;;;;;;;6.28;3.90;;;;;;;18.08;72.25;100933.66;1680461;84;21162;-47
2022/07/20 00:39:38;;;;;;;7.37;4.50;;;;;;;18.04;72.45;100935.45;1692030;83;21071;-47
2022/07/20 00:42:06;;;;;;;6.42;4.00;;;;;;;17.96;72.67;100930.94;1688099;84;21064;-47
2022/07/20 00:44:32;;;;;;;6.87;3.60;;;;;;;17.89;72.96;100923.25;1701325;83;21502;-47
2022/07/20 00:46:59;;;;;;;8.18;4.50;;;;;;;17.86;72.96;100922.20;1690595;84;21082;-49
2022/07/20 00:49:26;;;;;;;7.65;4.37;;;;;;;17.85;73.01;100919.19;1736561;81;21132;-47
2022/07/20 00:51:53;;;;;;;7.00;4.37;;;;;;;17.84;73.14;100917.02;1705896;83;21035;-47
2022/07/20 00:54:19;;;;;;;6.83;3.83;;;;;;;17.83;73.28;100914.02;1703780;83;21042;-47
2022/07/20 00:56:46;;;;;;;7.03;4.53;;;;;;;17.80;73.48;100918.31;1706464;83;21110;-47
2022/07/20 00:59:13;;;;;;;8.45;4.33;;;;;;;17.79;73.65;100916.67;1734210;81;21071;-48
2022/07/20 01:01:39;;;;;;;7.12;4.12;;;;;;;17.77;73.73;100918.15;1733896;80;21130;-47
2022/07/20 01:04:06;;;;;;;7.72;4.20;;;;;;;17.80;73.67;100914.33;1701810;83;21492;-47
2022/07/20 01:06:33;;;;;;;6.15;3.90;;;;;;;17.83;73.39;100911.35;1701817;82;21366;-47
2022/07/20 01:08:59;;;;;;;6.60;3.77;;;;;;;17.89;73.35;100915.27;1703475;83;21604;-47
2022/07/20 01:11:26;;;;;;;6.97;4.28;;;;;;;17.94;73.36;100916.95;1670654;83;21522;-47
2022/07/20 01:14:03;;;;;;;7.60;4.55;;;;;;;17.95;73.32;100917.27;1704630;84;21841;-47
2022/07/20 01:16:30;;;;;;;7.78;4.17;;;;;;;17.94;73.14;100918.28;1676607;84;21600;-47
2022/07/20 01:18:57;;;;;;;6.03;4.12;;;;;;;17.89;73.09;100917.42;1696383;83;21510;-47
2022/07/20 01:21:23;;;;;;;8.13;4.67;;;;;;;17.87;73.07;100916.75;1701158;84;21628;-47
2022/07/20 01:23:50;;;;;;;6.22;3.85;;;;;;;17.89;72.92;100919.25;1704787;84;21543;-48
2022/07/20 01:26:19;;;;;;;6.62;4.03;;;;;;;17.86;72.84;100915.03;1704845;83;21148;-47
2022/07/20 01:28:46;;;;;;;6.17;4.03;;;;;;;17.86;73.08;100915.03;1689865;83;21020;-47
2022/07/20 01:31:13;;;;;;;6.30;3.92;;;;;;;17.81;72.99;100920.83;1682165;83;21059;-47
2022/07/20 01:33:40;;;;;;;7.58;4.35;;;;;;;17.68;72.98;100916.92;1688664;83;21489;-48
2022/07/20 01:36:09;;;;;;;6.58;3.60;;;;;;;17.55;73.20;100928.81;1698606;83;21075;-47
2022/07/20 01:38:36;;;;;;;7.58;3.45;;;;;;;17.46;73.34;100924.41;1709266;83;21756;-47
2022/07/20 01:41:02;;;;;;;6.87;3.87;;;;;;;17.43;73.48;100922.91;1703189;82;21086;-47
2022/07/20 01:43:29;;;;;;;5.72;3.67;;;;;;;17.40;73.62;100929.01;1709189;83;21075;-47
2022/07/20 01:45:56;;;;;;;5.90;3.90;;;;;;;17.38;73.79;100923.02;1702464;82;21054;-47
2022/07/20 01:48:23;;;;;;;7.42;4.47;;;;;;;17.34;73.93;100925.66;1707931;83;21070;-47
2022/07/20 01:50:50;;;;;;;5.80;3.60;;;;;;;17.24;74.06;100917.75;1743095;81;21204;-47
2022/07/20 01:53:16;;;;;;;6.60;3.95;;;;;;;17.21;74.29;100925.53;1744405;82;21045;-49
2022/07/20 01:55:43;;;;;;;6.15;3.77;;;;;;;17.23;74.14;100920.91;1745642;81;21015;-47
2022/07/20 01:58:09;;;;;;;7.87;3.98;;;;;;;17.23;74.32;100919.59;1745475;80;21102;-47
2022/07/20 02:00:36;;;;;;;6.22;4.10;;;;;;;17.26;74.34;100923.27;1743642;81;21143;-48
2022/07/20 02:03:03;;;;;;;7.80;4.85;;;;;;;17.23;74.33;100916.93;1747056;82;21083;-47
2022/07/20 02:05:30;;;;;;;7.50;4.37;;;;;;;17.19;74.45;100919.53;1743386;80;21066;-48
2022/07/20 02:07:58;;;;;;;6.25;3.85;;;;;;;17.15;74.70;100922.67;1741980;81;21159;-48
2022/07/20 02:10:25;;;;;;;6.72;4.00;;;;;;;17.15;74.82;100926.16;1745635;80;21061;-48
2022/07/20 02:12:52;;;;;;;7.20;4.42;;;;;;;17.24;74.88;100932.38;1747111;82;21132;-48
2022/07/20 02:18:09;;;;;;;7.90;4.03;;;;;;;17.36;74.86;100926.33;1708808;83;21023;-48
2022/07/20 02:20:35;;;;;;;6.85;3.85;;;;;;;17.42;74.66;100923.89;1730845;81;21067;-47
2022/07/20 02:23:04;;;;;;;6.83;4.12;;;;;;;17.41;74.40;100925.37;1747381;80;21067;-47
2022/07/20 02:25:30;;;;;;;7.33;4.00;;;;;;;17.39;74.45;100932.17;1746288;81;21120;-47
2022/07/20 02:27:57;;;;;;;9.63;3.95;;;;;;;17.40;74.34;100935.66;1747364;80;21138;-47
2022/07/20 02:30:23;;;;;;;7.12;4.62;;;;;;;17.39;74.20;100922.03;1745908;81;21106;-48
2022/07/20 02:32:50;;;;;;;6.80;4.05;;;;;;;17.41;73.79;100922.20;1750112;81;21077;-47
2022/07/20 02:35:17;;;;;;;6.92;3.87;;;;;;;17.39;73.70;100922.03;1738520;80;21088;-48
2022/07/20 02:37:43;;;;;;;8.58;4.05;;;;;;;17.41;73.75;100926.70;1707499;82;21078;-47
2022/07/20 02:40:10;;;;;;;7.72;4.37;;;;;;;17.36;73.73;100923.16;1702249;83;21195;-49
2022/07/20 02:42:38;;;;;;;6.42;4.05;;;;;;;17.33;73.87;100925.30;1711954;83;21173;-47
2022/07/20 02:45:06;;;;;;;8.28;3.90;;;;;;;17.31;73.96;100931.27;1704970;83;21117;-47
2022/07/20 02:47:42;;;;;;;6.35;3.98;;;;;;;17.32;73.89;100931.63;1706942;82;21070;-47
2022/07/20 02:50:09;;;;;;;6.35;3.85;;;;;;;17.36;73.58;100932.47;1735863;80;21516;-47
2022/07/20 02:52:36;;;;;;;10.03;4.58;;;;;;;17.38;73.52;100937.64;1742066;81;21076;-47
2022/07/20 02:55:03;;;;;;;6.78;4.58;;;;;;;17.36;73.69;100933.80;1740527;81;21043;-47
2022/07/20 02:57:30;;;;;;;7.70;3.87;;;;;;;17.40;73.77;100935.66;1733736;82;21048;-47
2022/07/20 02:59:56;;;;;;;6.70;4.15;;;;;;;17.39;73.75;100932.67;1701951;83;21376;-47
2022/07/20 03:02:23;;;;;;;5.53;3.75;;;;;;;17.35;73.72;100929.49;1736280;80;21072;-47
2022/07/20 03:04:49;;;;;;;6.78;4.35;;;;;;;17.37;73.72;100930.67;1738556;80;21103;-47
2022/07/20 03:07:17;;;;;;;6.55;4.28;;;;;;;17.42;73.60;100933.70;1733768;81;21711;-47
2022/07/20 03:09:43;;;;;;;8.83;4.58;;;;;;;17.43;73.48;100934.02;1695722;83;21456;-48
2022/07/20 03:12:11;;;;;;;7.15;4.28;;;;;;;17.43;73.55;100931.36;1704556;83;21058;-47
2022/07/20 03:14:38;;;;;;;6.58;4.40;;;;;;;17.41;73.66;100934.68;1702436;82;21122;-46
2022/07/20 03:17:05;;;;;;;7.45;4.72;;;;;;;17.38;73.84;100932.32;1708046;83;21116;-47
2022/07/20 03:19:32;;;;;;;7.80;4.33;;;;;;;17.32;73.87;100928.97;1704695;82;21043;-47
2022/07/20 03:21:58;;;;;;;5.70;3.83;;;;;;;17.31;74.01;100933.94;1705398;83;21048;-47
2022/07/20 03:24:25;;;;;;;6.55;4.15;;;;;;;17.33;73.96;100926.62;1709106;83;21157;-47
2022/07/20 03:26:51;;;;;;;6.42;4.40;;;;;;;17.34;74.00;100926.98;1709692;83;21035;-47
2022/07/20 03:29:17;;;;;;;7.35;4.20;;;;;;;17.38;74.13;100930.52;1708130;83;21127;-46
2022/07/20 03:31:44;;;;;;;7.42;3.65;;;;;;;17.37;74.26;100930.67;1703553;82;21116;-46
2022/07/20 03:34:11;;;;;;;6.12;3.80;;;;;;;17.33;74.50;100931.48;1712138;82;21042;-47
2022/07/20 03:36:39;;;;;;;6.05;3.60;;;;;;;17.31;74.87;100941.41;1744219;80;21044;-47
2022/07/20 03:39:05;;;;;;;6.67;3.90;;;;;;;17.36;75.11;100940.95;1738976;81;21107;-47
2022/07/20 03:41:32;;;;;;;7.53;3.92;;;;;;;17.39;74.85;100937.48;1751321;81;21888;-47
2022/07/20 03:44:00;;;;;;;5.60;4.03;;;;;;;17.45;74.94;100936.06;1700222;83;21507;-47
2022/07/20 03:46:27;;;;;;;9.40;3.95;;;;;;;17.49;74.97;100933.92;1690125;84;21063;-47
2022/07/20 03:48:54;;;;;;;5.95;3.77;;;;;;;17.53;74.96;100929.95;1684516;84;21087;-47
2022/07/20 03:51:21;;;;;;;5.80;3.85;;;;;;;17.51;74.87;100932.77;1670386;84;21072;-47
2022/07/20 03:53:47;;;;;;;6.45;4.25;;;;;;;17.53;74.94;100935.27;1733229;80;21102;-49
2022/07/20 03:56:13;;;;;;;7.15;3.95;;;;;;;17.58;74.94;100938.30;1739105;81;21020;-48
2022/07/20 03:58:40;;;;;;;6.67;4.15;;;;;;;17.62;74.88;100930.36;1708063;82;20984;-47
2022/07/20 04:01:07;;;;;;;7.42;3.95;;;;;;;17.68;74.89;100931.55;1737966;81;21534;-48
2022/07/20 04:03:34;;;;;;;5.85;3.62;;;;;;;17.72;74.78;100929.77;1731081;80;21533;-47
2022/07/20 04:06:01;;;;;;;6.35;3.80;;;;;;;17.72;74.85;100927.58;1738895;81;23391;-47
2022/07/20 04:08:29;;;;;;;6.83;3.72;;;;;;;17.73;74.84;100920.77;1702523;83;21058;-47
2022/07/20 04:10:56;;;;;;;7.03;3.72;;;;;;;17.77;74.88;100923.95;1739574;81;21064;-48
2022/07/20 04:13:22;;;;;;;5.78;3.30;;;;;;;17.88;74.92;100917.07;1700188;83;21647;-47
2022/07/20 04:15:48;;;;;;;8.93;3.85;;;;;;;18.04;74.81;100917.67;1734672;81;21086;-48
2022/07/20 04:18:17;;;;;;;7.05;3.70;;;;;;;18.18;74.26;100910.91;1734676;81;23112;-48
2022/07/20 04:20:43;;;;;;;6.47;3.35;;;;;;;18.24;74.01;100908.94;1735530;81;21086;-48
2022/07/20 04:23:11;;;;;;;7.00;3.20;;;;;;;18.31;73.92;100903.81;1702264;84;21067;-47
2022/07/20 04:25:39;;;;;;;4.72;2.90;;;;;;;18.41;73.49;100906.31;1737311;80;21612;-48
2022/07/20 04:28:06;;;;;;;5.83;3.27;;;;;;;18.49;72.90;100898.35;1708478;82;21042;-48
2022/07/20 04:30:35;;;;;;;6.08;3.05;;;;;;;18.60;72.55;100907.89;1737538;81;21105;-48
2022/07/20 04:33:01;;;;;;;6.40;3.05;;;;;;;18.70;72.03;100908.58;1740847;81;20984;-47
2022/07/20 04:35:29;;;;;;;5.10;3.08;;;;;;;18.72;71.96;100899.92;1735620;80;21005;-47
2022/07/20 04:37:55;;;;;;;6.67;3.17;;;;;;;18.79;72.07;100895.59;1749697;81;21117;-48
2022/07/20 04:40:22;;;;;;;7.75;3.17;;;;;;;18.84;71.69;100895.14;1749144;80;21055;-47
2022/07/20 04:42:48;;;;;;;5.67;3.17;;;;;;;18.89;71.38;100896.30;1752053;80;21088;-48
2022/07/20 04:45:15;;;;;;;4.70;2.90;;;;;;;18.99;71.09;100897.48;1749086;80;21338;-48
2022/07/20 04:47:42;;;;;;;5.28;3.00;;;;;;;19.05;70.51;100888.01;1713818;83;21062;-47
2022/07/20 05:02:52;;;;;;;5.62;3.30;;;;;;;20.11;67.74;100878.99;1786693;77;22671;-60
2022/07/20 05:05:19;;;;;;;5.40;2.50;;;;;;;20.26;67.05;100877.77;1656671;84;21687;-60
2022/07/20 05:07:45;;;;;;;8.83;3.60;;;;;;;20.32;66.64;100873.03;1659080;84;21812;-60
2022/07/20 05:10:12;;;;;;;19.65;4.92;;;;;;;20.38;66.29;100871.01;1665705;84;21881;-60
2022/07/20 05:12:40;;;;;;;13.68;4.20;;;;;;;20.37;66.04;100866.66;1693600;83;21046;-60
2022/07/20 05:15:08;;;;;;;28.02;6.08;;;;;;;20.35;65.80;100859.84;1695567;83;21118;-59
2022/07/20 05:17:36;;;;;;;9.68;3.83;;;;;;;20.31;65.89;100852.69;1660804;84;21720;-59
2022/07/20 05:20:05;;;;;;;5.80;3.05;;;;;;;20.34;65.60;100856.83;1680747;84;21550;-60
2022/07/20 05:22:33;;;;;;;5.45;2.95;;;;;;;20.37;65.36;100851.96;1681681;84;21029;-59
2022/07/20 05:25:00;;;;;;;5.78;3.20;;;;;;;20.41;65.19;100845.79;1679388;84;21232;-59
2022/07/20 05:27:26;;;;;;;5.83;2.62;;;;;;;20.38;64.22;100849.63;1686840;83;21181;-60
2022/07/20 05:29:53;;;;;;;5.87;2.90;;;;;;;20.32;63.75;100842.30;1683332;83;21168;-59
2022/07/20 05:32:19;;;;;;;10.10;3.12;;;;;;;20.29;63.82;100840.49;1694410;82;21062;-60
2022/07/20 05:34:46;;;;;;;10.72;3.80;;;;;;;20.28;64.10;100846.34;1687223;82;21069;-60
2022/07/20 05:37:12;;;;;;;9.90;3.37;;;;;;;20.33;64.39;100840.48;1692790;82;21403;-60
2022/07/20 05:39:39;;;;;;;6.30;2.77;;;;;;;20.45;64.22;100836.91;1692024;84;21473;-60
2022/07/20 05:42:05;;;;;;;6.08;2.95;;;;;;;20.55;64.02;100832.98;1688111;84;21027;-60
2022/07/20 05:44:32;;;;;;;6.78;2.72;;;;;;;20.68;63.63;100826.23;1686513;83;21164;-59
2022/07/20 05:46:59;;;;;;;5.40;2.90;;;;;;;20.81;63.23;100820.30;1686549;83;21721;-60
2022/07/20 05:49:25;;;;;;;4.20;2.30;;;;;;;20.89;62.78;100809.02;1671644;84;21109;-60
2022/07/20 05:51:52;;;;;;;5.42;2.12;;;;;;;20.99;62.96;100814.13;1686560;83;21044;-60
2022/07/20 05:54:18;;;;;;;5.80;2.72;;;;;;;21.06;61.53;100808.88;1676123;83;21627;-59
2022/07/20 05:56:45;;;;;;;6.03;2.47;;;;;;;21.09;61.55;100809.86;1682415;82;21962;-59
2022/07/20 05:59:13;;;;;;;5.60;2.70;;;;;;;21.13;61.41;100807.14;1708326;83;21180;-60
2022/07/20 06:01:43;;;;;;;7.45;2.20;;;;;;;21.21;61.19;100803.05;1676809;83;21165;-60
2022/07/20 06:04:08;;;;;;;11.78;3.27;;;;;;;21.33;60.57;100809.63;1687334;84;21202;-59
2022/07/20 06:06:35;;;;;;;6.22;2.42;;;;;;;21.43;59.87;100811.20;1687241;83;21106;-59
2022/07/20 06:09:04;;;;;;;5.10;2.50;;;;;;;21.47;60.02;100809.86;1659611;84;21953;-60
2022/07/20 06:11:32;;;;;;;4.30;2.20;;;;;;;21.49;59.71;100802.47;1676864;83;21046;-59
2022/07/20 06:13:59;;;;;;;5.75;2.42;;;;;;;21.51;59.29;100804.45;1683431;84;21057;-59
2022/07/20 06:16:25;;;;;;;6.25;2.55;;;;;;;21.52;59.30;100802.92;1682286;84;21018;-59
2022/07/20 06:18:52;;;;;;;5.28;2.37;;;;;;;21.55;58.84;100794.20;1666602;84;21125;-60
2022/07/20 06:21:19;;;;;;;4.62;2.20;;;;;;;21.56;59.02;100790.52;1691205;82;21153;-60
2022/07/20 06:23:45;;;;;;;6.55;2.40;;;;;;;21.57;58.65;100796.17;1683477;84;21192;-60
2022/07/20 06:26:12;;;;;;;4.87;1.82;;;;;;;21.58;59.05;100786.62;1692553;83;21122;-59
2022/07/20 06:28:38;;;;;;;5.90;2.27;;;;;;;21.64;58.31;100791.24;1683502;84;21117;-60
2022/07/20 06:31:06;;;;;;;5.30;2.10;;;;;;;21.77;58.29;100788.41;1660361;84;21099;-60
2022/07/20 06:33:34;;;;;;;4.00;2.17;;;;;;;21.86;58.30;100779.27;1689156;83;21307;-58
2022/07/20 06:36:00;;;;;;;4.40;2.37;;;;;;;21.94;58.25;100775.63;1691061;82;21086;-58
2022/07/20 06:38:27;;;;;;;5.25;2.37;;;;;;;22.02;57.31;100775.03;1669991;83;21068;-58
2022/07/20 06:40:54;;;;;;;4.83;2.47;;;;;;;22.08;57.58;100778.80;1669013;84;21166;-59
2022/07/20 06:43:23;;;;;;;6.00;2.45;;;;;;;22.12;56.92;100769.34;1675990;84;21051;-59
2022/07/20 06:45:49;;;;;;;6.55;2.65;;;;;;;22.16;57.21;100759.10;1661851;84;21113;-58
2022/07/20 06:48:16;;;;;;;5.97;2.22;;;;;;;22.23;56.64;100759.99;1650179;84;21051;-58
2022/07/20 06:50:43;;;;;;;9.03;2.52;;;;;;;22.29;56.50;100763.27;1677955;84;21109;-59
2022/07/20 06:53:09;;;;;;;6.67;2.62;;;;;;;22.36;55.93;100761.50;1685359;84;21208;-58
2022/07/20 06:55:36;;;;;;;6.67;2.80;;;;;;;22.41;55.96;100760.94;1684346;82;21140;-58
2022/07/20 06:58:03;;;;;;;7.12;2.85;;;;;;;22.46;54.82;100757.17;1678380;84;21208;-59
2022/07/20 07:00:30;;;;;;;10.13;3.30;;;;;;;22.48;54.94;100753.77;1686261;82;21111;-59
2022/07/20 07:02:57;;;;;;;6.05;3.20;;;;;;;22.50;55.42;100753.06;1684323;83;21556;-59
2022/07/20 07:05:23;;;;;;;5.60;2.90;;;;;;;22.58;55.11;100757.48;1689898;83;21093;-59
2022/07/20 07:07:50;;;;;;;6.90;3.05;;;;;;;22.62;54.39;100749.35;1690520;83;21082;-59
2022/07/20 07:10:18;;;;;;;5.20;2.87;;;;;;;22.65;54.50;100755.67;1682983;83;20997;-60
2022/07/20 07:12:45;;;;;;;5.10;2.58;;;;;;;22.69;54.66;100758.80;1678468;84;21130;-58
2022/07/20 07:15:12;;;;;;;8.43;3.72;;;;;;;22.73;54.70;100759.56;1677335;83;21094;-59
2022/07/20 07:17:40;;;;;;;6.85;3.30;;;;;;;22.78;55.14;100757.12;1678994;82;21613;-58
2022/07/20 07:20:09;;;;;;;6.33;2.70;;;;;;;22.85;53.86;100749.63;1637293;84;21584;-59
2022/07/20 07:22:35;;;;;;;6.62;3.08;;;;;;;22.89;53.30;100738.84;1676737;83;21128;-58
2022/07/20 07:25:04;;;;;;;6.37;2.75;;;;;;;22.92;53.51;100730.40;1674605;83;21454;-58
2022/07/20 07:27:31;;;;;;;4.95;2.80;;;;;;;22.96;52.77;100737.88;1680661;83;21027;-59
2022/07/20 07:29:58;;;;;;;10.05;3.42;;;;;;;22.99;52.64;100724.03;1675534;84;21090;-59
2022/07/20 07:32:25;;;;;;;5.45;2.72;;;;;;;23.04;53.32;100718.09;1678732;83;21073;-58
2022/07/20 07:34:51;;;;;;;7.65;3.20;;;;;;;23.12;53.34;100714.46;1683126;82;21147;-60
2022/07/20 07:37:18;;;;;;;5.95;3.05;;;;;;;23.20;53.04;100710.28;1681150;83;21087;-59
2022/07/20 07:39:45;;;;;;;5.53;3.33;;;;;;;23.23;53.07;100711.20;1676136;83;21449;-59
2022/07/20 07:42:12;;;;;;;4.95;2.80;;;;;;;23.28;52.68;100705.24;1679844;82;21137;-58
2022/07/20 07:44:38;;;;;;;6.72;3.08;;;;;;;23.34;51.88;100711.17;1672399;84;21122;-58
2022/07/20 07:47:05;;;;;;;5.58;2.65;;;;;;;23.37;50.86;100704.06;1682596;82;21220;-59
2022/07/20 07:49:33;;;;;;;5.62;3.12;;;;;;;23.40;50.49;100703.64;1679373;83;21125;-59
2022/07/20 07:52:00;;;;;;;5.42;2.90;;;;;;;23.46;51.35;100702.85;1674272;84;21129;-58
2022/07/20 07:54:26;;;;;;;5.17;2.80;;;;;;;23.54;51.00;100701.86;1673937;84;21093;-59
2022/07/20 07:56:53;;;;;;;6.10;3.27;;;;;;;23.61;51.20;100689.80;1672660;84;21046;-59
2022/07/20 07:59:20;;;;;;;7.45;3.10;;;;;;;23.70;50.89;100681.86;1682334;82;21155;-59
2022/07/20 08:01:48;;;;;;;4.85;2.65;;;;;;;23.76;51.88;100685.62;1676081;84;21023;-59
2022/07/20 08:04:15;;;;;;;5.67;3.08;;;;;;;23.87;51.70;100687.23;1676969;84;21603;-59
2022/07/20 08:06:43;;;;;;;6.15;3.60;;;;;;;23.91;51.18;100683.09;1687242;83;21023;-59
2022/07/20 08:09:10;;;;;;;6.00;3.55;;;;;;;23.96;51.44;100689.73;1682671;82;21374;-58
2022/07/20 08:11:36;;;;;;;5.50;3.35;;;;;;;24.00;50.91;100676.18;1678785;82;21147;-59
2022/07/20 08:14:03;;;;;;;4.95;2.80;;;;;;;24.08;50.48;100667.92;1670664;84;21075;-59
2022/07/20 08:16:31;;;;;;;5.92;3.15;;;;;;;24.17;49.76;100668.02;1677677;84;21149;-59
2022/07/20 08:18:58;;;;;;;6.60;3.42;;;;;;;24.26;49.30;100671.36;1669264;84;21085;-59
2022/07/20 08:21:25;;;;;;;8.30;3.40;;;;;;;24.32;49.42;100671.86;1681468;82;21099;-59
2022/07/20 08:23:52;;;;;;;7.58;3.72;;;;;;;24.37;48.10;100663.18;1685180;83;22418;-58
2022/07/20 08:26:19;;;;;;;5.25;3.37;;;;;;;24.42;48.39;100668.77;1681774;82;21809;-60
2022/07/20 08:28:45;;;;;;;6.67;3.33;;;;;;;24.46;48.03;100652.51;1662559;84;21569;-59
2022/07/20 08:31:12;;;;;;;7.62;2.92;;;;;;;24.52;48.46;100654.37;1688084;83;21066;-60
2022/07/20 08:33:38;;;;;;;5.67;3.30;;;;;;;24.55;49.11;100639.20;1680237;84;21494;-60
2022/07/20 08:36:08;;;;;;;6.53;3.33;;;;;;;24.58;48.59;100649.55;1692685;83;21988;-59
2022/07/20 08:38:34;;;;;;;6.65;3.50;;;;;;;24.57;48.04;100645.19;1682904;84;21064;-59
2022/07/20 08:41:02;;;;;;;6.37;3.22;;;;;;;24.54;48.21;100647.45;1665553;84;21193;-59
2022/07/20 08:43:29;;;;;;;6.20;3.62;;;;;;;24.55;48.44;100643.77;1664575;84;21128;-60
2022/07/20 08:45:56;;;;;;;6.47;3.75;;;;;;;24.53;48.45;100643.94;1640582;85;21131;-61
2022/07/20 08:48:23;;;;;;;5.58;3.40;;;;;;;24.50;48.68;100638.16;1686278;83;21206;-60
2022/07/20 08:50:49;;;;;;;5.58;3.55;;;;;;;24.45;48.37;100625.32;1653165;85;21048;-60
2022/07/20 08:53:17;;;;;;;7.03;3.58;;;;;;;24.44;49.14;100622.31;1689490;82;21043;-59
2022/07/20 08:55:44;;;;;;;6.45;3.77;;;;;;;24.48;49.14;100614.15;1677300;84;21664;-59
2022/07/20 08:58:11;;;;;;;5.65;3.37;;;;;;;24.52;48.84;100617.25;1666056;84;21098;-59
2022/07/20 09:00:39;;;;;;;6.97;3.67;;;;;;;24.57;49.11;100603.49;1651357;84;21173;-60
2022/07/20 09:03:07;;;;;;;6.60;3.75;;;;;;;24.70;48.94;100588.38;1680680;83;21110;-60
2022/07/20 09:05:39;;;;;;;6.42;3.75;;;;;;;24.83;48.15;100587.81;1680530;84;21070;-59
2022/07/20 09:08:13;;;;;;;6.20;3.75;;;;;;;24.95;48.47;100581.25;1689208;83;21070;-60
2022/07/20 09:10:42;;;;;;;6.05;3.42;;;;;;;25.07;47.70;100580.59;1672666;84;21157;-59
2022/07/20 09:13:14;;;;;;;5.78;3.45;;;;;;;25.16;47.76;100572.56;1685850;82;21533;-59
2022/07/20 09:15:47;;;;;;;8.85;3.95;;;;;;;25.22;47.19;100564.98;1673051;84;21091;-60
2022/07/20 09:18:30;;;;;;;6.12;4.00;;;;;;;25.27;46.76;100567.88;1683846;83;21016;-60
2022/07/20 09:21:07;;;;;;;5.60;3.10;;;;;;;25.30;46.96;100551.30;1675461;82;21560;-58
2022/07/20 09:23:47;;;;;;;5.62;3.17;;;;;;;25.39;46.33;100550.52;1679041;84;21532;-59
2022/07/20 09:26:15;;;;;;;6.75;3.67;;;;;;;25.48;46.85;100538.42;1683390;84;21161;-58
2022/07/20 09:28:52;;;;;;;10.15;4.20;;;;;;;25.58;46.03;100528.52;1665117;84;21782;-59
2022/07/20 09:31:29;;;;;;;5.35;3.08;;;;;;;25.69;45.56;100537.78;1678018;83;21105;-59
2022/07/20 09:33:58;;;;;;;7.28;3.47;;;;;;;25.75;45.59;100529.61;1681206;82;21582;-59
2022/07/20 09:36:28;;;;;;;7.12;3.77;;;;;;;25.78;45.89;100545.88;1673851;83;21508;-59
2022/07/20 09:38:54;;;;;;;7.95;3.75;;;;;;;25.82;45.27;100534.95;1667272;84;21169;-59
2022/07/20 09:41:31;;;;;;;7.30;3.75;;;;;;;25.84;44.14;100519.41;1676931;83;21102;-59
2022/07/20 09:43:59;;;;;;;6.35;3.72;;;;;;;25.85;44.75;100529.66;1680659;84;21184;-59
2022/07/20 09:46:32;;;;;;;6.65;3.55;;;;;;;25.89;44.67;100514.68;1691773;82;21047;-60
2022/07/20 09:49:04;;;;;;;5.85;3.52;;;;;;;25.91;44.17;100526.09;1677281;83;21530;-59
2022/07/20 09:51:48;;;;;;;6.87;3.50;;;;;;;25.89;44.45;100506.59;1680265;82;21172;-60
2022/07/20 09:54:17;;;;;;;5.80;3.70;;;;;;;25.92;45.09;100507.00;1685416;83;21039;-59
2022/07/20 09:56:48;;;;;;;6.12;3.77;;;;;;;26.00;44.83;100491.08;1689741;82;21102;-61
2022/07/20 09:59:16;;;;;;;7.10;3.70;;;;;;;26.05;44.37;100493.94;1673425;83;21553;-60
2022/07/20 10:01:48;;;;;;;6.55;3.30;;;;;;;26.01;44.55;100477.06;1687565;82;21358;-59
2022/07/20 10:04:16;;;;;;;5.50;3.37;;;;;;;26.01;45.30;100476.56;1679326;84;21485;-61
2022/07/20 10:06:46;;;;;;;7.60;3.70;;;;;;;26.10;44.73;100475.21;1689688;82;21090;-60
2022/07/20 10:09:14;;;;;;;7.33;3.60;;;;;;;26.25;43.43;100473.50;1677120;82;21126;-60
2022/07/20 10:11:42;;;;;;;6.35;3.47;;;;;;;26.37;44.03;100469.53;1687034;83;21190;-59
2022/07/20 10:14:09;;;;;;;5.90;3.37;;;;;;;26.47;44.08;100454.98;1684992;82;21130;-59
2022/07/20 10:16:42;;;;;;;5.92;3.52;;;;;;;26.56;43.91;100447.39;1685531;83;21562;-60
2022/07/20 10:19:09;;;;;;;9.55;4.17;;;;;;;26.68;43.46;100450.21;1686619;83;21086;-60
2022/07/20 10:21:48;;;;;;;6.78;3.47;;;;;;;26.71;43.85;100449.73;1673615;83;21098;-59
2022/07/20 10:24:31;;;;;;;9.33;3.47;;;;;;;26.75;43.25;100424.45;1683739;83;21093;-59
2022/07/20 10:27:24;;;;;;;6.50;3.83;;;;;;;26.79;43.40;100416.20;1692381;82;21161;-60
2022/07/20 10:29:53;;;;;;;6.97;3.80;;;;;;;26.82;42.44;100430.06;1676613;83;21142;-58
2022/07/20 10:32:23;;;;;;;6.05;3.35;;;;;;;26.83;42.31;100425.48;1660979;83;21636;-59
2022/07/20 10:34:57;;;;;;;6.50;3.35;;;;;;;26.90;42.16;100409.19;1695201;82;21311;-59
2022/07/20 10:37:36;;;;;;;12.53;3.90;;;;;;;26.93;42.58;100401.98;1680065;83;21133;-59
2022/07/20 10:40:15;;;;;;;5.70;3.75;;;;;;;26.99;42.56;100401.07;1685379;83;21627;-60
2022/07/20 10:42:50;;;;;;;8.35;4.60;;;;;;;27.08;42.91;100392.10;1680476;84;21847;-60
2022/07/20 10:45:23;;;;;;;5.90;3.58;;;;;;;27.14;42.44;100377.68;1675503;82;21488;-60
2022/07/20 10:47:57;;;;;;;8.45;4.28;;;;;;;27.21;41.43;100376.50;1683037;82;21070;-60
2022/07/20 10:50:37;;;;;;;15.70;4.27;;;;;;;27.16;41.27;100365.57;1682728;82;21523;-60
2022/07/20 10:53:15;;;;;;;7.95;3.77;;;;;;;27.08;41.88;100364.56;1685373;82;21830;-59
2022/07/20 10:55:50;;;;;;;5.90;3.42;;;;;;;27.04;42.13;100355.30;1665958;84;21204;-59
2022/07/20 10:58:23;;;;;;;7.60;4.20;;;;;;;27.12;42.43;100347.36;1685702;82;21088;-59
2022/07/20 11:01:02;;;;;;;5.78;3.52;;;;;;;27.28;42.42;100337.76;1657336;84;21215;-60
2022/07/20 11:03:43;;;;;;;7.58;3.80;;;;;;;27.49;42.41;100352.57;1690756;83;21115;-58
2022/07/20 11:06:20;;;;;;;6.20;3.65;;;;;;;27.59;40.74;100342.02;1687899;83;21584;-60
2022/07/20 11:08:58;;;;;;;5.40;3.58;;;;;;;27.56;40.96;100341.13;1661048;84;21211;-59
2022/07/20 11:11:27;;;;;;;5.87;3.40;;;;;;;27.57;41.29;100332.80;1675846;84;21090;-58
2022/07/20 11:13:54;;;;;;;5.30;3.45;;;;;;;27.66;40.90;100331.08;1684580;84;21554;-59
2022/07/20 11:16:26;;;;;;;7.28;3.77;;;;;;;27.67;41.17;100324.59;1675856;84;22395;-59
2022/07/20 11:18:53;;;;;;;7.40;3.92;;;;;;;27.67;40.66;100323.25;1689186;82;21567;-59
2022/07/20 11:21:39;;;;;;;5.87;3.52;;;;;;;27.70;41.01;100324.13;1689876;83;21864;-60
2022/07/20 11:24:26;;;;;;;5.80;3.62;;;;;;;27.75;40.36;100318.83;1671135;83;21524;-59
2022/07/20 11:26:53;;;;;;;7.90;3.55;;;;;;;27.83;40.62;100297.38;1676106;83;21087;-59
2022/07/20 11:29:20;;;;;;;8.08;3.70;;;;;;;27.88;40.69;100294.77;1686733;83;21067;-60
2022/07/20 11:31:46;;;;;;;5.33;3.27;;;;;;;27.90;39.48;100297.51;1701694;83;21134;-61
2022/07/20 11:34:13;;;;;;;6.83;3.60;;;;;;;27.84;40.16;100284.97;1675369;83;21816;-60
2022/07/20 11:36:40;;;;;;;6.08;3.62;;;;;;;27.75;39.82;100303.95;1683191;82;21410;-60
2022/07/20 11:39:09;;;;;;;7.85;3.50;;;;;;;27.63;40.10;100275.61;1688180;82;21144;-59
2022/07/20 11:41:41;;;;;;;5.78;3.70;;;;;;;27.54;40.11;100274.34;1663402;83;21030;-60
2022/07/20 11:44:13;;;;;;;6.10;3.62;;;;;;;27.48;40.29;100284.74;1679756;83;21135;-60
2022/07/20 11:46:41;;;;;;;6.33;3.52;;;;;;;27.53;40.30;100265.94;1665165;83;21895;-59